sensor_id;sensor_type;location;lat;lon;timestamp;temperature;humidity
84739;DHT22;74969;44.836;-0.586;2024-01-11T00:00:50;0.50;82.60
84739;DHT22;74969;44.836;-0.586;2024-01-11T00:03:16;0.50;82.40
84739;DHT22;74969;44.836;-0.586;2024-01-11T00:05:42;0.50;82.50
84739;DHT22;74969;44.836;-0.586;2024-01-11T00:08:08;0.40;82.50
84739;DHT22;74969;44.836;-0.586;2024-01-11T00:10:36;0.50;82.70
84739;DHT22;74969;44.836;-0.586;2024-01-11T00:13:01;0.40;82.90
84739;DHT22;74969;44.836;-0.586;2024-01-11T00:15:27;0.50;82.80
84739;DHT22;74969;44.836;-0.586;2024-01-11T00:17:53;0.50;82.60
84739;DHT22;74969;44.836;-0.586;2024-01-11T00:20:18;0.60;82.30
84739;DHT22;74969;44.836;-0.586;2024-01-11T00:22:44;0.60;82.20
84739;DHT22;74969;44.836;-0.586;2024-01-11T00:25:10;0.60;82.10
84739;DHT22;74969;44.836;-0.586;2024-01-11T00:27:35;0.60;81.80
84739;DHT22;74969;44.836;-0.586;2024-01-11T00:30:01;0.60;81.90
84739;DHT22;74969;44.836;-0.586;2024-01-11T00:32:27;0.60;82.20
84739;DHT22;74969;44.836;-0.586;2024-01-11T00:34:52;0.50;82.50
84739;DHT22;74969;44.836;-0.586;2024-01-11T00:37:18;0.50;82.50
84739;DHT22;74969;44.836;-0.586;2024-01-11T00:39:43;0.50;82.40
84739;DHT22;74969;44.836;-0.586;2024-01-11T00:42:10;0.50;82.60
84739;DHT22;74969;44.836;-0.586;2024-01-11T00:44:35;0.50;82.40
84739;DHT22;74969;44.836;-0.586;2024-01-11T00:47:01;0.60;82.30
84739;DHT22;74969;44.836;-0.586;2024-01-11T00:49:27;0.60;82.40
84739;DHT22;74969;44.836;-0.586;2024-01-11T00:51:52;0.60;82.70
84739;DHT22;74969;44.836;-0.586;2024-01-11T00:54:18;0.60;82.60
84739;DHT22;74969;44.836;-0.586;2024-01-11T00:56:44;0.70;82.60
84739;DHT22;74969;44.836;-0.586;2024-01-11T00:59:09;0.60;82.50
84739;DHT22;74969;44.836;-0.586;2024-01-11T01:01:35;0.60;82.50
84739;DHT22;74969;44.836;-0.586;2024-01-11T01:04:00;0.60;82.30
84739;DHT22;74969;44.836;-0.586;2024-01-11T01:06:26;0.60;82.60
84739;DHT22;74969;44.836;-0.586;2024-01-11T01:08:53;0.60;82.70
84739;DHT22;74969;44.836;-0.586;2024-01-11T01:11:19;0.60;82.60
84739;DHT22;74969;44.836;-0.586;2024-01-11T01:13:44;0.60;82.60
84739;DHT22;74969;44.836;-0.586;2024-01-11T01:16:10;0.50;82.60
84739;DHT22;74969;44.836;-0.586;2024-01-11T01:18:36;0.50;82.60
84739;DHT22;74969;44.836;-0.586;2024-01-11T01:21:01;0.60;82.80
84739;DHT22;74969;44.836;-0.586;2024-01-11T01:23:27;0.60;82.80
84739;DHT22;74969;44.836;-0.586;2024-01-11T01:25:53;0.60;83.00
84739;DHT22;74969;44.836;-0.586;2024-01-11T01:28:18;0.60;82.70
84739;DHT22;74969;44.836;-0.586;2024-01-11T01:30:44;0.60;82.80
84739;DHT22;74969;44.836;-0.586;2024-01-11T01:33:10;0.60;82.80
84739;DHT22;74969;44.836;-0.586;2024-01-11T01:35:35;0.60;82.90
84739;DHT22;74969;44.836;-0.586;2024-01-11T01:38:02;0.60;83.00
84739;DHT22;74969;44.836;-0.586;2024-01-11T01:40:30;0.70;82.70
84739;DHT22;74969;44.836;-0.586;2024-01-11T01:42:59;0.70;82.50
84739;DHT22;74969;44.836;-0.586;2024-01-11T01:45:27;0.70;82.50
84739;DHT22;74969;44.836;-0.586;2024-01-11T01:47:53;0.70;82.80
84739;DHT22;74969;44.836;-0.586;2024-01-11T01:50:20;0.70;82.60
84739;DHT22;74969;44.836;-0.586;2024-01-11T01:52:46;0.70;82.20
84739;DHT22;74969;44.836;-0.586;2024-01-11T01:55:14;0.70;82.30
84739;DHT22;74969;44.836;-0.586;2024-01-11T01:57:42;0.70;82.30
84739;DHT22;74969;44.836;-0.586;2024-01-11T02:00:10;0.70;82.60
84739;DHT22;74969;44.836;-0.586;2024-01-11T02:02:38;0.60;82.70
84739;DHT22;74969;44.836;-0.586;2024-01-11T02:05:06;0.60;82.80
84739;DHT22;74969;44.836;-0.586;2024-01-11T02:07:32;0.70;82.80
84739;DHT22;74969;44.836;-0.586;2024-01-11T02:09:58;0.60;82.90
84739;DHT22;74969;44.836;-0.586;2024-01-11T02:12:25;0.70;82.80
84739;DHT22;74969;44.836;-0.586;2024-01-11T02:14:54;0.70;83.10
84739;DHT22;74969;44.836;-0.586;2024-01-11T02:17:20;0.80;82.70
84739;DHT22;74969;44.836;-0.586;2024-01-11T02:19:46;0.80;82.50
84739;DHT22;74969;44.836;-0.586;2024-01-11T02:22:34;0.90;82.50
84739;DHT22;74969;44.836;-0.586;2024-01-11T02:25:00;0.80;82.30
84739;DHT22;74969;44.836;-0.586;2024-01-11T02:27:26;0.80;82.10
84739;DHT22;74969;44.836;-0.586;2024-01-11T02:29:51;0.80;82.40
84739;DHT22;74969;44.836;-0.586;2024-01-11T02:32:17;0.80;82.50
84739;DHT22;74969;44.836;-0.586;2024-01-11T02:34:43;0.90;82.30
84739;DHT22;74969;44.836;-0.586;2024-01-11T02:37:09;0.90;82.20
84739;DHT22;74969;44.836;-0.586;2024-01-11T02:39:35;0.90;82.40
84739;DHT22;74969;44.836;-0.586;2024-01-11T02:42:01;0.90;82.10
84739;DHT22;74969;44.836;-0.586;2024-01-11T02:44:27;0.90;82.10
84739;DHT22;74969;44.836;-0.586;2024-01-11T02:46:53;1.00;82.10
84739;DHT22;74969;44.836;-0.586;2024-01-11T02:49:18;0.90;82.10
84739;DHT22;74969;44.836;-0.586;2024-01-11T02:51:44;0.90;82.30
84739;DHT22;74969;44.836;-0.586;2024-01-11T02:54:10;0.90;82.60
84739;DHT22;74969;44.836;-0.586;2024-01-11T02:56:36;0.80;82.80
84739;DHT22;74969;44.836;-0.586;2024-01-11T02:59:01;0.80;82.70
84739;DHT22;74969;44.836;-0.586;2024-01-11T03:01:27;0.80;82.70
84739;DHT22;74969;44.836;-0.586;2024-01-11T03:03:53;0.80;82.80
84739;DHT22;74969;44.836;-0.586;2024-01-11T03:06:19;0.90;83.00
84739;DHT22;74969;44.836;-0.586;2024-01-11T03:08:48;0.90;82.70
84739;DHT22;74969;44.836;-0.586;2024-01-11T03:11:14;0.90;82.50
84739;DHT22;74969;44.836;-0.586;2024-01-11T03:13:40;0.90;82.60
84739;DHT22;74969;44.836;-0.586;2024-01-11T03:16:05;1.00;82.30
84739;DHT22;74969;44.836;-0.586;2024-01-11T03:18:31;1.00;82.60
84739;DHT22;74969;44.836;-0.586;2024-01-11T03:20:57;1.00;82.80
84739;DHT22;74969;44.836;-0.586;2024-01-11T03:23:23;1.00;82.70
84739;DHT22;74969;44.836;-0.586;2024-01-11T03:25:48;0.90;82.60
84739;DHT22;74969;44.836;-0.586;2024-01-11T03:28:14;0.90;82.60
84739;DHT22;74969;44.836;-0.586;2024-01-11T03:30:40;0.80;82.50
84739;DHT22;74969;44.836;-0.586;2024-01-11T03:33:06;0.80;82.90
84739;DHT22;74969;44.836;-0.586;2024-01-11T03:35:31;0.90;82.90
84739;DHT22;74969;44.836;-0.586;2024-01-11T03:37:57;0.90;83.00
84739;DHT22;74969;44.836;-0.586;2024-01-11T03:40:22;0.90;82.70
84739;DHT22;74969;44.836;-0.586;2024-01-11T03:42:48;0.90;82.70
84739;DHT22;74969;44.836;-0.586;2024-01-11T03:45:18;0.90;82.90
84739;DHT22;74969;44.836;-0.586;2024-01-11T03:47:44;1.00;82.90
84739;DHT22;74969;44.836;-0.586;2024-01-11T03:50:10;1.00;82.90
84739;DHT22;74969;44.836;-0.586;2024-01-11T03:52:36;1.10;82.70
84739;DHT22;74969;44.836;-0.586;2024-01-11T03:55:02;1.10;82.70
84739;DHT22;74969;44.836;-0.586;2024-01-11T03:57:28;1.10;82.60
84739;DHT22;74969;44.836;-0.586;2024-01-11T03:59:54;1.10;82.30
84739;DHT22;74969;44.836;-0.586;2024-01-11T04:02:19;1.10;82.50
84739;DHT22;74969;44.836;-0.586;2024-01-11T04:04:45;1.10;82.40
84739;DHT22;74969;44.836;-0.586;2024-01-11T04:07:11;1.00;82.60
84739;DHT22;74969;44.836;-0.586;2024-01-11T04:09:38;1.00;82.50
84739;DHT22;74969;44.836;-0.586;2024-01-11T04:12:04;1.10;82.50
84739;DHT22;74969;44.836;-0.586;2024-01-11T04:14:30;1.00;82.50
84739;DHT22;74969;44.836;-0.586;2024-01-11T04:16:56;1.10;82.50
84739;DHT22;74969;44.836;-0.586;2024-01-11T04:19:22;1.10;82.30
84739;DHT22;74969;44.836;-0.586;2024-01-11T04:21:47;1.10;82.30
84739;DHT22;74969;44.836;-0.586;2024-01-11T04:24:13;1.10;82.50
84739;DHT22;74969;44.836;-0.586;2024-01-11T04:26:39;1.10;82.50
84739;DHT22;74969;44.836;-0.586;2024-01-11T04:29:05;1.10;82.30
84739;DHT22;74969;44.836;-0.586;2024-01-11T04:31:30;1.20;82.10
84739;DHT22;74969;44.836;-0.586;2024-01-11T04:33:56;1.10;82.10
84739;DHT22;74969;44.836;-0.586;2024-01-11T04:36:22;1.20;82.10
84739;DHT22;74969;44.836;-0.586;2024-01-11T04:38:47;1.10;81.90
84739;DHT22;74969;44.836;-0.586;2024-01-11T04:41:14;1.10;82.10
84739;DHT22;74969;44.836;-0.586;2024-01-11T04:43:41;1.10;82.20
84739;DHT22;74969;44.836;-0.586;2024-01-11T04:46:20;1.10;82.00
84739;DHT22;74969;44.836;-0.586;2024-01-11T04:48:47;1.10;82.00
84739;DHT22;74969;44.836;-0.586;2024-01-11T04:51:15;1.10;81.80
84739;DHT22;74969;44.836;-0.586;2024-01-11T04:53:42;1.20;81.90
84739;DHT22;74969;44.836;-0.586;2024-01-11T04:56:09;1.20;81.90
84739;DHT22;74969;44.836;-0.586;2024-01-11T04:58:35;1.20;81.80
84739;DHT22;74969;44.836;-0.586;2024-01-11T05:01:02;1.20;81.80
84739;DHT22;74969;44.836;-0.586;2024-01-11T05:03:28;1.20;81.90
84739;DHT22;74969;44.836;-0.586;2024-01-11T05:05:54;1.20;81.80
84739;DHT22;74969;44.836;-0.586;2024-01-11T05:08:19;1.20;81.80
84739;DHT22;74969;44.836;-0.586;2024-01-11T05:10:45;1.20;82.10
84739;DHT22;74969;44.836;-0.586;2024-01-11T05:13:11;1.20;82.00
84739;DHT22;74969;44.836;-0.586;2024-01-11T05:15:36;1.20;82.20
84739;DHT22;74969;44.836;-0.586;2024-01-11T05:18:02;1.20;81.90
84739;DHT22;74969;44.836;-0.586;2024-01-11T05:20:28;1.20;82.20
84739;DHT22;74969;44.836;-0.586;2024-01-11T05:22:55;1.30;81.90
84739;DHT22;74969;44.836;-0.586;2024-01-11T05:25:20;1.30;82.00
84739;DHT22;74969;44.836;-0.586;2024-01-11T05:27:46;1.30;81.70
84739;DHT22;74969;44.836;-0.586;2024-01-11T05:30:12;1.30;81.60
84739;DHT22;74969;44.836;-0.586;2024-01-11T05:32:38;1.20;81.80
84739;DHT22;74969;44.836;-0.586;2024-01-11T05:35:03;1.20;81.80
84739;DHT22;74969;44.836;-0.586;2024-01-11T05:37:29;1.20;82.00
84739;DHT22;74969;44.836;-0.586;2024-01-11T05:39:55;1.20;82.00
84739;DHT22;74969;44.836;-0.586;2024-01-11T05:42:23;1.30;82.00
84739;DHT22;74969;44.836;-0.586;2024-01-11T05:44:48;1.20;82.00
84739;DHT22;74969;44.836;-0.586;2024-01-11T05:47:14;1.30;82.20
84739;DHT22;74969;44.836;-0.586;2024-01-11T05:49:40;1.30;82.10
84739;DHT22;74969;44.836;-0.586;2024-01-11T05:52:06;1.30;82.00
84739;DHT22;74969;44.836;-0.586;2024-01-11T05:54:31;1.40;82.10
84739;DHT22;74969;44.836;-0.586;2024-01-11T05:56:57;1.30;81.90
84739;DHT22;74969;44.836;-0.586;2024-01-11T05:59:24;1.30;81.90
84739;DHT22;74969;44.836;-0.586;2024-01-11T06:01:50;1.40;82.00
84739;DHT22;74969;44.836;-0.586;2024-01-11T06:04:16;1.40;82.00
84739;DHT22;74969;44.836;-0.586;2024-01-11T06:06:42;1.40;82.10
84739;DHT22;74969;44.836;-0.586;2024-01-11T06:09:08;1.40;82.00
84739;DHT22;74969;44.836;-0.586;2024-01-11T06:11:35;1.40;81.90
84739;DHT22;74969;44.836;-0.586;2024-01-11T06:14:01;1.40;81.90
84739;DHT22;74969;44.836;-0.586;2024-01-11T06:16:27;1.40;81.80
84739;DHT22;74969;44.836;-0.586;2024-01-11T06:18:52;1.40;81.50
84739;DHT22;74969;44.836;-0.586;2024-01-11T06:21:18;1.40;81.50
84739;DHT22;74969;44.836;-0.586;2024-01-11T06:23:44;1.40;81.50
84739;DHT22;74969;44.836;-0.586;2024-01-11T06:26:10;1.40;81.50
84739;DHT22;74969;44.836;-0.586;2024-01-11T06:28:35;1.40;81.40
84739;DHT22;74969;44.836;-0.586;2024-01-11T06:31:01;1.40;81.30
84739;DHT22;74969;44.836;-0.586;2024-01-11T06:33:27;1.40;81.20
84739;DHT22;74969;44.836;-0.586;2024-01-11T06:35:53;1.40;81.20
84739;DHT22;74969;44.836;-0.586;2024-01-11T06:38:19;1.40;81.10
84739;DHT22;74969;44.836;-0.586;2024-01-11T06:40:45;1.50;81.30
84739;DHT22;74969;44.836;-0.586;2024-01-11T06:43:10;1.40;80.60
84739;DHT22;74969;44.836;-0.586;2024-01-11T06:45:36;1.40;80.80
84739;DHT22;74969;44.836;-0.586;2024-01-11T06:48:02;1.40;81.40
84739;DHT22;74969;44.836;-0.586;2024-01-11T06:50:28;1.40;81.00
84739;DHT22;74969;44.836;-0.586;2024-01-11T06:52:54;1.40;80.80
84739;DHT22;74969;44.836;-0.586;2024-01-11T06:55:19;1.40;80.70
84739;DHT22;74969;44.836;-0.586;2024-01-11T06:57:48;1.50;80.70
84739;DHT22;74969;44.836;-0.586;2024-01-11T07:00:14;1.50;80.30
84739;DHT22;74969;44.836;-0.586;2024-01-11T07:02:40;1.50;80.60
84739;DHT22;74969;44.836;-0.586;2024-01-11T07:05:08;1.50;80.70
84739;DHT22;74969;44.836;-0.586;2024-01-11T07:07:34;1.60;80.50
84739;DHT22;74969;44.836;-0.586;2024-01-11T07:09:59;1.60;80.70
84739;DHT22;74969;44.836;-0.586;2024-01-11T07:12:25;1.60;80.60
84739;DHT22;74969;44.836;-0.586;2024-01-11T07:14:51;1.60;80.80
84739;DHT22;74969;44.836;-0.586;2024-01-11T07:17:17;1.60;80.80
84739;DHT22;74969;44.836;-0.586;2024-01-11T07:19:43;1.60;80.50
84739;DHT22;74969;44.836;-0.586;2024-01-11T07:22:09;1.60;80.80
84739;DHT22;74969;44.836;-0.586;2024-01-11T07:24:34;1.60;80.60
84739;DHT22;74969;44.836;-0.586;2024-01-11T07:27:06;1.70;80.80
84739;DHT22;74969;44.836;-0.586;2024-01-11T07:29:33;1.70;80.80
84739;DHT22;74969;44.836;-0.586;2024-01-11T07:31:59;1.70;80.60
84739;DHT22;74969;44.836;-0.586;2024-01-11T07:34:25;1.70;80.70
84739;DHT22;74969;44.836;-0.586;2024-01-11T07:36:52;1.70;80.80
84739;DHT22;74969;44.836;-0.586;2024-01-11T07:39:18;1.60;80.70
84739;DHT22;74969;44.836;-0.586;2024-01-11T07:41:44;1.70;80.80
84739;DHT22;74969;44.836;-0.586;2024-01-11T07:44:09;1.70;80.80
84739;DHT22;74969;44.836;-0.586;2024-01-11T07:46:35;1.70;80.50
84739;DHT22;74969;44.836;-0.586;2024-01-11T07:49:05;1.70;80.20
84739;DHT22;74969;44.836;-0.586;2024-01-11T07:51:31;1.60;80.30
84739;DHT22;74969;44.836;-0.586;2024-01-11T07:53:56;1.60;80.50
84739;DHT22;74969;44.836;-0.586;2024-01-11T07:56:22;1.70;80.20
84739;DHT22;74969;44.836;-0.586;2024-01-11T07:58:48;1.70;80.40
84739;DHT22;74969;44.836;-0.586;2024-01-11T08:01:15;1.70;80.30
84739;DHT22;74969;44.836;-0.586;2024-01-11T08:03:41;1.70;80.20
84739;DHT22;74969;44.836;-0.586;2024-01-11T08:06:10;1.80;80.10
84739;DHT22;74969;44.836;-0.586;2024-01-11T08:08:37;1.70;80.20
84739;DHT22;74969;44.836;-0.586;2024-01-11T08:11:04;1.70;80.20
84739;DHT22;74969;44.836;-0.586;2024-01-11T08:13:30;1.70;80.30
84739;DHT22;74969;44.836;-0.586;2024-01-11T08:15:57;1.70;80.30
84739;DHT22;74969;44.836;-0.586;2024-01-11T08:18:23;1.80;80.30
84739;DHT22;74969;44.836;-0.586;2024-01-11T08:20:49;1.80;80.30
84739;DHT22;74969;44.836;-0.586;2024-01-11T08:23:15;1.80;80.30
84739;DHT22;74969;44.836;-0.586;2024-01-11T08:26:51;2.30;79.20
84739;DHT22;74969;44.836;-0.586;2024-01-11T08:29:17;1.70;80.20
84739;DHT22;74969;44.836;-0.586;2024-01-11T08:31:45;1.70;80.30
84739;DHT22;74969;44.836;-0.586;2024-01-11T08:34:11;1.70;80.50
84739;DHT22;74969;44.836;-0.586;2024-01-11T08:36:37;1.70;80.70
84739;DHT22;74969;44.836;-0.586;2024-01-11T08:39:04;1.80;80.60
84739;DHT22;74969;44.836;-0.586;2024-01-11T08:41:34;1.80;80.30
84739;DHT22;74969;44.836;-0.586;2024-01-11T08:44:01;1.80;80.30
84739;DHT22;74969;44.836;-0.586;2024-01-11T08:46:28;1.80;80.10
84739;DHT22;74969;44.836;-0.586;2024-01-11T08:48:56;1.80;80.40
84739;DHT22;74969;44.836;-0.586;2024-01-11T08:51:22;1.90;80.10
84739;DHT22;74969;44.836;-0.586;2024-01-11T08:53:48;1.90;80.20
84739;DHT22;74969;44.836;-0.586;2024-01-11T08:56:14;2.00;80.30
84739;DHT22;74969;44.836;-0.586;2024-01-11T08:58:41;2.00;80.10
84739;DHT22;74969;44.836;-0.586;2024-01-11T09:01:07;2.00;79.70
84739;DHT22;74969;44.836;-0.586;2024-01-11T09:03:34;2.00;79.40
84739;DHT22;74969;44.836;-0.586;2024-01-11T09:06:01;2.00;79.00
84739;DHT22;74969;44.836;-0.586;2024-01-11T09:08:27;2.10;79.30
84739;DHT22;74969;44.836;-0.586;2024-01-11T09:10:53;2.10;79.00
84739;DHT22;74969;44.836;-0.586;2024-01-11T09:13:19;2.10;79.10
84739;DHT22;74969;44.836;-0.586;2024-01-11T09:15:44;2.10;78.50
84739;DHT22;74969;44.836;-0.586;2024-01-11T09:18:10;2.10;78.50
84739;DHT22;74969;44.836;-0.586;2024-01-11T09:20:36;2.10;79.10
84739;DHT22;74969;44.836;-0.586;2024-01-11T09:23:01;2.10;79.30
84739;DHT22;74969;44.836;-0.586;2024-01-11T09:25:32;2.10;79.20
84739;DHT22;74969;44.836;-0.586;2024-01-11T09:27:59;2.20;79.00
84739;DHT22;74969;44.836;-0.586;2024-01-11T09:30:24;2.20;79.10
84739;DHT22;74969;44.836;-0.586;2024-01-11T09:32:50;2.20;78.80
84739;DHT22;74969;44.836;-0.586;2024-01-11T09:35:16;2.20;78.30
84739;DHT22;74969;44.836;-0.586;2024-01-11T09:37:41;2.20;78.50
84739;DHT22;74969;44.836;-0.586;2024-01-11T09:40:08;2.30;78.40
84739;DHT22;74969;44.836;-0.586;2024-01-11T09:42:36;2.30;79.00
84739;DHT22;74969;44.836;-0.586;2024-01-11T09:45:09;2.50;76.60
84739;DHT22;74969;44.836;-0.586;2024-01-11T09:47:36;2.40;76.80
84739;DHT22;74969;44.836;-0.586;2024-01-11T09:50:06;2.30;77.60
84739;DHT22;74969;44.836;-0.586;2024-01-11T09:52:32;2.30;78.10
84739;DHT22;74969;44.836;-0.586;2024-01-11T09:55:01;2.40;78.10
84739;DHT22;74969;44.836;-0.586;2024-01-11T09:57:31;2.40;76.90
84739;DHT22;74969;44.836;-0.586;2024-01-11T09:59:58;2.40;77.40
84739;DHT22;74969;44.836;-0.586;2024-01-11T10:02:25;2.40;77.50
84739;DHT22;74969;44.836;-0.586;2024-01-11T10:04:52;2.50;77.80
84739;DHT22;74969;44.836;-0.586;2024-01-11T10:07:21;2.60;77.50
84739;DHT22;74969;44.836;-0.586;2024-01-11T10:09:47;2.70;77.70
84739;DHT22;74969;44.836;-0.586;2024-01-11T10:12:13;2.80;76.40
84739;DHT22;74969;44.836;-0.586;2024-01-11T10:14:39;2.60;75.80
84739;DHT22;74969;44.836;-0.586;2024-01-11T10:17:06;2.40;77.30
84739;DHT22;74969;44.836;-0.586;2024-01-11T10:19:32;2.50;77.60
84739;DHT22;74969;44.836;-0.586;2024-01-11T10:21:57;2.60;76.90
84739;DHT22;74969;44.836;-0.586;2024-01-11T10:24:26;2.60;76.40
84739;DHT22;74969;44.836;-0.586;2024-01-11T10:27:01;2.60;76.60
84739;DHT22;74969;44.836;-0.586;2024-01-11T10:29:33;2.70;76.70
84739;DHT22;74969;44.836;-0.586;2024-01-11T10:31:59;2.60;77.40
84739;DHT22;74969;44.836;-0.586;2024-01-11T10:34:25;2.70;77.80
84739;DHT22;74969;44.836;-0.586;2024-01-11T10:36:51;2.70;76.50
84739;DHT22;74969;44.836;-0.586;2024-01-11T10:39:17;2.70;77.20
84739;DHT22;74969;44.836;-0.586;2024-01-11T10:41:47;2.60;77.30
84739;DHT22;74969;44.836;-0.586;2024-01-11T10:44:22;2.60;77.50
84739;DHT22;74969;44.836;-0.586;2024-01-11T10:46:49;2.70;76.90
84739;DHT22;74969;44.836;-0.586;2024-01-11T10:49:19;2.70;77.50
84739;DHT22;74969;44.836;-0.586;2024-01-11T10:51:52;2.80;77.70
84739;DHT22;74969;44.836;-0.586;2024-01-11T10:54:20;2.90;77.70
84739;DHT22;74969;44.836;-0.586;2024-01-11T10:56:46;2.90;77.10
84739;DHT22;74969;44.836;-0.586;2024-01-11T10:59:13;2.90;76.80
84739;DHT22;74969;44.836;-0.586;2024-01-11T11:01:42;2.90;77.30
84739;DHT22;74969;44.836;-0.586;2024-01-11T11:04:09;2.90;77.50
84739;DHT22;74969;44.836;-0.586;2024-01-11T11:06:36;3.00;77.70
84739;DHT22;74969;44.836;-0.586;2024-01-11T11:09:04;3.20;76.50
84739;DHT22;74969;44.836;-0.586;2024-01-11T11:11:33;3.30;75.20
84739;DHT22;74969;44.836;-0.586;2024-01-11T11:14:00;3.30;75.60
84739;DHT22;74969;44.836;-0.586;2024-01-11T11:16:26;3.30;75.50
84739;DHT22;74969;44.836;-0.586;2024-01-11T11:18:53;3.30;75.70
84739;DHT22;74969;44.836;-0.586;2024-01-11T11:21:20;3.30;76.50
84739;DHT22;74969;44.836;-0.586;2024-01-11T11:23:46;3.40;75.60
84739;DHT22;74969;44.836;-0.586;2024-01-11T11:26:18;3.30;75.40
84739;DHT22;74969;44.836;-0.586;2024-01-11T11:28:44;3.20;75.80
84739;DHT22;74969;44.836;-0.586;2024-01-11T11:31:13;3.20;76.00
84739;DHT22;74969;44.836;-0.586;2024-01-11T11:33:59;3.20;76.00
84739;DHT22;74969;44.836;-0.586;2024-01-11T11:36:29;3.30;75.50
84739;DHT22;74969;44.836;-0.586;2024-01-11T11:38:58;3.20;76.20
84739;DHT22;74969;44.836;-0.586;2024-01-11T11:41:26;3.20;76.70
84739;DHT22;74969;44.836;-0.586;2024-01-11T11:43:52;3.20;76.80
84739;DHT22;74969;44.836;-0.586;2024-01-11T11:46:19;3.30;77.30
84739;DHT22;74969;44.836;-0.586;2024-01-11T11:48:49;3.40;77.70
84739;DHT22;74969;44.836;-0.586;2024-01-11T11:53:43;3.60;77.40
84739;DHT22;74969;44.836;-0.586;2024-01-11T11:56:10;3.60;77.00
84739;DHT22;74969;44.836;-0.586;2024-01-11T11:58:36;3.50;76.20
84739;DHT22;74969;44.836;-0.586;2024-01-11T12:01:03;3.40;76.50
84739;DHT22;74969;44.836;-0.586;2024-01-11T12:03:30;3.40;76.90
84739;DHT22;74969;44.836;-0.586;2024-01-11T12:05:57;3.50;77.60
84739;DHT22;74969;44.836;-0.586;2024-01-11T12:08:23;3.60;77.20
84739;DHT22;74969;44.836;-0.586;2024-01-11T12:10:49;3.60;77.60
84739;DHT22;74969;44.836;-0.586;2024-01-11T12:13:14;3.70;77.40
84739;DHT22;74969;44.836;-0.586;2024-01-11T12:15:41;3.70;77.50
84739;DHT22;74969;44.836;-0.586;2024-01-11T12:18:06;3.70;77.20
84739;DHT22;74969;44.836;-0.586;2024-01-11T12:20:35;3.70;77.10
84739;DHT22;74969;44.836;-0.586;2024-01-11T12:23:02;3.70;77.10
84739;DHT22;74969;44.836;-0.586;2024-01-11T12:25:28;3.70;76.90
84739;DHT22;74969;44.836;-0.586;2024-01-11T12:27:54;3.60;77.50
84739;DHT22;74969;44.836;-0.586;2024-01-11T12:30:26;3.70;77.60
84739;DHT22;74969;44.836;-0.586;2024-01-11T12:32:56;3.70;77.70
84739;DHT22;74969;44.836;-0.586;2024-01-11T12:35:22;3.70;77.20
84739;DHT22;74969;44.836;-0.586;2024-01-11T12:37:58;3.70;77.00
84739;DHT22;74969;44.836;-0.586;2024-01-11T12:40:24;3.80;77.20
84739;DHT22;74969;44.836;-0.586;2024-01-11T12:42:50;3.80;77.00
84739;DHT22;74969;44.836;-0.586;2024-01-11T12:45:19;3.70;77.10
84739;DHT22;74969;44.836;-0.586;2024-01-11T12:47:45;3.70;76.90
84739;DHT22;74969;44.836;-0.586;2024-01-11T12:50:14;3.70;77.00
84739;DHT22;74969;44.836;-0.586;2024-01-11T12:52:40;3.80;77.20
84739;DHT22;74969;44.836;-0.586;2024-01-11T12:55:08;3.80;77.10
84739;DHT22;74969;44.836;-0.586;2024-01-11T12:57:34;3.80;77.40
84739;DHT22;74969;44.836;-0.586;2024-01-11T13:00:10;3.80;76.70
84739;DHT22;74969;44.836;-0.586;2024-01-11T13:02:37;3.70;76.50
84739;DHT22;74969;44.836;-0.586;2024-01-11T13:05:04;3.70;76.60
84739;DHT22;74969;44.836;-0.586;2024-01-11T13:07:30;3.60;76.60
84739;DHT22;74969;44.836;-0.586;2024-01-11T13:09:57;3.70;76.90
84739;DHT22;74969;44.836;-0.586;2024-01-11T13:12:23;3.80;77.00
84739;DHT22;74969;44.836;-0.586;2024-01-11T13:14:48;3.90;76.70
84739;DHT22;74969;44.836;-0.586;2024-01-11T13:17:16;3.90;76.40
84739;DHT22;74969;44.836;-0.586;2024-01-11T13:19:41;3.90;76.70
84739;DHT22;74969;44.836;-0.586;2024-01-11T13:22:07;3.80;76.20
84739;DHT22;74969;44.836;-0.586;2024-01-11T13:24:33;3.80;76.40
84739;DHT22;74969;44.836;-0.586;2024-01-11T13:26:59;3.80;76.30
84739;DHT22;74969;44.836;-0.586;2024-01-11T13:29:24;3.90;76.10
84739;DHT22;74969;44.836;-0.586;2024-01-11T13:31:50;3.90;75.90
84739;DHT22;74969;44.836;-0.586;2024-01-11T13:34:16;3.90;76.10
84739;DHT22;74969;44.836;-0.586;2024-01-11T13:36:41;3.90;76.30
84739;DHT22;74969;44.836;-0.586;2024-01-11T13:39:07;3.90;76.30
84739;DHT22;74969;44.836;-0.586;2024-01-11T13:41:36;3.90;75.90
84739;DHT22;74969;44.836;-0.586;2024-01-11T13:44:02;4.00;75.80
84739;DHT22;74969;44.836;-0.586;2024-01-11T13:46:28;4.00;76.30
84739;DHT22;74969;44.836;-0.586;2024-01-11T13:48:53;4.00;75.90
84739;DHT22;74969;44.836;-0.586;2024-01-11T13:51:19;4.00;76.10
84739;DHT22;74969;44.836;-0.586;2024-01-11T13:53:44;4.00;76.30
84739;DHT22;74969;44.836;-0.586;2024-01-11T13:56:11;4.00;76.10
84739;DHT22;74969;44.836;-0.586;2024-01-11T13:58:37;4.00;76.20
84739;DHT22;74969;44.836;-0.586;2024-01-11T14:01:03;4.00;76.20
84739;DHT22;74969;44.836;-0.586;2024-01-11T14:03:29;4.00;76.50
84739;DHT22;74969;44.836;-0.586;2024-01-11T14:05:55;4.00;76.80
84739;DHT22;74969;44.836;-0.586;2024-01-11T14:08:21;4.00;76.40
84739;DHT22;74969;44.836;-0.586;2024-01-11T14:10:46;3.90;76.40
84739;DHT22;74969;44.836;-0.586;2024-01-11T14:13:12;3.90;76.60
84739;DHT22;74969;44.836;-0.586;2024-01-11T14:15:38;3.90;76.90
84739;DHT22;74969;44.836;-0.586;2024-01-11T14:18:06;3.90;76.60
84739;DHT22;74969;44.836;-0.586;2024-01-11T14:20:33;3.90;76.30
84739;DHT22;74969;44.836;-0.586;2024-01-11T14:22:59;3.90;76.80
84739;DHT22;74969;44.836;-0.586;2024-01-11T14:25:25;3.90;76.70
84739;DHT22;74969;44.836;-0.586;2024-01-11T14:27:51;4.00;76.60
84739;DHT22;74969;44.836;-0.586;2024-01-11T14:30:18;4.00;76.60
84739;DHT22;74969;44.836;-0.586;2024-01-11T14:32:44;4.00;76.00
84739;DHT22;74969;44.836;-0.586;2024-01-11T14:35:10;4.00;76.40
84739;DHT22;74969;44.836;-0.586;2024-01-11T14:37:38;4.00;76.50
84739;DHT22;74969;44.836;-0.586;2024-01-11T14:40:07;4.00;76.50
84739;DHT22;74969;44.836;-0.586;2024-01-11T14:42:35;4.00;76.10
84739;DHT22;74969;44.836;-0.586;2024-01-11T14:45:00;4.00;75.80
84739;DHT22;74969;44.836;-0.586;2024-01-11T14:47:26;3.80;76.20
84739;DHT22;74969;44.836;-0.586;2024-01-11T14:49:52;3.80;76.10
84739;DHT22;74969;44.836;-0.586;2024-01-11T14:52:18;3.70;76.60
84739;DHT22;74969;44.836;-0.586;2024-01-11T14:54:46;3.60;77.30
84739;DHT22;74969;44.836;-0.586;2024-01-11T14:57:15;3.70;77.50
84739;DHT22;74969;44.836;-0.586;2024-01-11T14:59:42;3.90;77.00
84739;DHT22;74969;44.836;-0.586;2024-01-11T15:02:07;3.90;76.90
84739;DHT22;74969;44.836;-0.586;2024-01-11T15:04:35;4.00;77.10
84739;DHT22;74969;44.836;-0.586;2024-01-11T15:07:00;4.00;76.90
84739;DHT22;74969;44.836;-0.586;2024-01-11T15:09:26;4.10;76.70
84739;DHT22;74969;44.836;-0.586;2024-01-11T15:11:52;4.10;76.80
84739;DHT22;74969;44.836;-0.586;2024-01-11T15:14:18;4.20;76.80
84739;DHT22;74969;44.836;-0.586;2024-01-11T15:16:44;4.10;76.60
84739;DHT22;74969;44.836;-0.586;2024-01-11T15:19:11;4.10;76.60
84739;DHT22;74969;44.836;-0.586;2024-01-11T15:21:38;4.10;76.40
84739;DHT22;74969;44.836;-0.586;2024-01-11T15:24:05;4.10;76.30
84739;DHT22;74969;44.836;-0.586;2024-01-11T15:26:31;4.10;76.70
84739;DHT22;74969;44.836;-0.586;2024-01-11T15:28:56;4.10;76.80